Latest Weather Observations for Fowlers Gap

IDN60801

Issued at 9:32 pm EST Saturday 23 May 2015 (issued every 30 minutes, with the page automatically refreshed every 10 minutes)

About weather observations | Map of weather stations | Latest weather observations for NSW | Other Formats
Station Details ID: 046128 Name: FOWLERS GAP AWS Lat: -31.09 Lon: 141.70 Height: 181.0 m
Data from the previous 72 hours. | See also: Recent months at Fowlers Gap
Date/Time
EST
Temp
°C
App
Temp
°C
Dew
Point
Rel
Hum
%
Delta-T
°C
Wind Press
QNH
hPa
Press
MSL
hPa
Rain
since 9 am
mm
Dir
 
Spd
km/h
Gust
km/h
Spd
kts
Gust
kts
23/09:30pm 11.6 7.4 5.9 68 2.7 SE 17 24 9 13 1028.7 1028.6 0.0
23/09:00pm 11.8 7.7 6.1 68 2.7 SE 17 20 9 11 1028.7 1028.6 0.0
23/08:30pm 11.6 8.2 6.1 69 2.6 SSE 13 15 7 8 1028.6 1028.5 0.0
23/08:00pm 12.2 8.5 6.3 67 2.8 SE 15 19 8 10 1028.4 1028.3 0.0
23/07:30pm 12.2 8.8 6.0 66 2.9 SSE 13 17 7 9 1028.3 1028.2 0.0
23/07:00pm 13.2 9.7 5.6 60 3.6 SE 13 15 7 8 1028.3 1028.2 0.0
23/06:30pm 13.9 10.4 5.5 57 4.0 SE 13 15 7 8 1028.2 1028.1 0.0
23/06:00pm 14.7 11.6 5.5 54 4.4 SE 11 13 6 7 1028.1 1028.0 0.0
23/05:30pm 15.8 12.2 5.1 49 5.1 SE 13 20 7 11 1027.8 1027.7 0.0
23/05:00pm 16.6 11.6 4.6 45 5.7 SE 20 26 11 14 1027.6 1027.5 0.0
23/04:30pm 17.0 12.9 4.3 43 6.0 ESE 15 22 8 12 1027.5 1027.4 0.0
23/04:00pm 17.3 13.4 5.3 45 5.8 ESE 15 22 8 12 1027.6 1027.5 0.0
23/03:30pm 17.5 13.7 5.8 46 5.7 SE 15 19 8 10 1027.7 1027.6 0.0
23/03:00pm 17.6 13.8 5.9 46 5.7 SE 15 20 8 11 1027.7 1027.6 0.0
23/02:30pm 16.9 13.1 5.8 48 5.4 SE 15 20 8 11 1028.0 1027.9 0.0
23/02:00pm 17.1 13.5 6.9 51 5.1 ESE 15 22 8 12 1028.1 1028.0 0.0
23/01:30pm 16.9 13.0 7.3 53 4.8 SE 17 22 9 12 1028.5 1028.4 0.0
23/01:00pm 16.3 12.8 7.0 54 4.6 ESE 15 24 8 13 1028.9 1028.8 0.0
23/12:30pm 15.7 12.2 7.0 56 4.3 ESE 15 20 8 11 1029.4 1029.3 0.0
23/12:00pm 15.4 12.3 7.4 59 4.0 SE 13 17 7 9 1029.9 1029.8 0.0
23/11:30am 14.7 11.5 6.8 59 3.9 SE 13 20 7 11 1030.3 1030.2 0.0
23/11:00am 14.2 11.0 6.8 61 3.6 ESE 13 19 7 10 1030.6 1030.5 0.0
23/10:30am 13.2 10.3 6.5 64 3.2 SSE 11 17 6 9 1030.8 1030.7 0.0
23/10:00am 12.0 9.1 6.7 70 2.5 SSE 11 15 6 8 1031.0 1030.9 0.0
23/09:30am 10.8 7.5 6.6 75 2.0 SSE 13 17 7 9 1031.0 1030.9 0.0
23/09:00am 9.6 7.5 6.7 82 1.4 S 7 9 4 5 1030.8 1030.7 0.0
23/08:30am 7.7 5.6 6.0 89 0.8 SSW 6 9 3 5 1030.6 1030.5 0.0
23/08:00am 6.6 4.4 5.4 92 0.5 W 6 9 3 5 1030.3 1030.2 0.0
23/07:30am 5.7 3.2 4.7 93 0.4 SW 7 9 4 5 1030.0 1029.9 0.0
23/07:00am 6.4 4.2 5.2 92 0.5 S 6 9 3 5 1029.7 1029.6 0.0
23/06:30am 6.6 4.2 5.2 91 0.6 SW 7 9 4 5 1029.4 1029.3 0.0
23/06:00am 7.1 5.0 5.6 90 0.7 SW 6 7 3 4 1029.1 1029.0 0.0
23/05:30am 7.6 6.6 5.7 88 0.9 CALM 0 4 0 2 1028.8 1028.7 0.0
23/05:00am 8.7 5.4 6.3 85 1.1 SSE 13 19 7 10 1028.5 1028.4 0.0
23/04:30am 8.9 5.2 6.5 85 1.1 SE 15 22 8 12 1028.3 1028.2 0.0
23/04:00am 8.6 4.6 6.6 87 0.9 SE 17 22 9 12 1028.3 1028.2 0.0
23/03:30am 8.8 5.6 6.8 87 0.9 SSE 13 15 7 8 1028.5 1028.4 0.0
23/03:00am 9.0 6.2 7.0 87 0.9 SSE 11 17 6 9 1028.5 1028.4 0.0
23/02:30am 9.9 7.1 7.0 82 1.4 S 11 15 6 8 1028.5 1028.4 0.0
23/02:00am 10.5 6.6 7.2 80 1.6 SSE 17 24 9 13 1028.3 1028.2 0.0
23/01:30am 10.5 6.1 7.2 80 1.6 SE 20 28 11 15 1028.2 1028.1 0.0
23/01:00am 10.3 6.1 7.5 83 1.3 SE 19 24 10 13 1028.2 1028.1 0.0
23/12:30am 10.4 7.4 7.6 83 1.4 SSE 13 17 7 9 1028.5 1028.4 0.0
23/12:00am 10.2 7.2 7.8 85 1.2 SSE 13 15 7 8 1028.6 1028.5 0.0
 
Date/Time
EST
Temp
°C
App
Temp
°C
Dew
Point
Rel
Hum
%
Delta-T
°C
Wind Press
QNH
hPa
Press
MSL
hPa
Rain
since 9 am
mm
Dir
 
Spd
km/h
Gust
km/h
Spd
kts
Gust
kts
22/11:30pm 9.5 6.8 7.4 87 1.0 S 11 15 6 8 1028.6 1028.5 0.0
22/11:00pm 10.3 7.8 8.1 86 1.1 SSE 11 17 6 9 1028.7 1028.6 0.0
22/10:30pm 10.0 7.0 7.9 87 1.0 SSE 13 17 7 9 1028.7 1028.6 0.0
22/10:00pm 9.5 6.5 7.9 90 0.8 SSE 13 15 7 8 1028.9 1028.8 0.0
22/09:30pm 9.4 7.6 8.0 91 0.7 SSE 7 9 4 5 1029.0 1028.9 0.0
22/09:00pm 9.3 7.7 7.9 91 0.7 S 6 7 3 4 1029.1 1029.0 0.0
22/08:30pm 9.7 9.2 8.0 89 0.8 CALM 0 0 0 0 1029.0 1028.9 0.0
22/08:00pm 10.1 9.7 8.2 88 0.9 CALM 0 0 0 0 1029.1 1029.0 0.0
22/07:30pm 10.7 9.2 8.3 85 1.2 S 6 7 3 4 1029.0 1028.9 0.0
22/07:00pm 11.4 9.6 8.1 80 1.6 S 7 9 4 5 1028.7 1028.6 0.0
22/06:30pm 12.3 10.2 8.4 77 1.9 S 9 13 5 7 1028.4 1028.3 0.0
22/06:00pm 12.8 10.8 8.5 75 2.1 S 9 13 5 7 1028.2 1028.1 0.0
22/05:30pm 13.8 10.2 8.2 69 2.8 S 17 20 9 11 1027.9 1027.8 0.0
22/05:00pm 14.2 9.9 7.9 66 3.1 SSE 20 26 11 14 1027.6 1027.5 0.0
22/04:30pm 14.5 10.2 7.8 64 3.4 S 20 28 11 15 1027.5 1027.4 0.0
22/04:00pm 14.5 10.4 8.0 65 3.2 SSE 19 26 10 14 1027.3 1027.2 0.0
22/03:30pm 14.8 10.5 7.8 63 3.5 S 20 28 11 15 1027.3 1027.2 0.0
22/03:00pm 14.5 10.2 7.8 64 3.3 S 20 30 11 16 1027.2 1027.1 0.0
22/02:30pm 14.0 8.8 7.3 64 3.3 S 24 32 13 17 1027.1 1027.0 0.0
22/02:00pm 14.5 10.5 8.2 66 3.2 S 19 30 10 16 1027.2 1027.1 0.0
22/01:30pm 13.8 8.7 7.6 66 3.1 SSE 24 33 13 18 1027.4 1027.3 0.0
22/01:00pm 13.7 8.4 7.0 64 3.3 S 24 32 13 17 1027.5 1027.4 0.0
22/12:30pm 14.0 9.1 7.1 63 3.4 S 22 32 12 17 1027.9 1027.8 0.0
22/12:00pm 13.9 9.5 7.2 64 3.3 S 20 28 11 15 1028.4 1028.3 0.0
22/11:30am 13.3 8.8 7.1 66 3.0 S 20 26 11 14 1028.8 1028.7 0.0
22/11:00am 13.6 8.9 7.8 68 2.9 SSE 22 28 12 15 1029.1 1029.0 0.0
22/10:30am 12.9 9.0 7.1 68 2.8 S 17 22 9 12 1029.3 1029.2 0.0
22/10:00am 11.9 8.7 7.0 72 2.4 SSW 13 19 7 10 1029.2 1029.1 0.0
22/09:30am 11.0 8.7 7.3 78 1.8 SW 9 13 5 7 1028.9 1028.8 0.0
22/09:00am 9.9 8.9 7.2 83 1.3 W 2 7 1 4 1028.6 1028.5 0.2
22/08:30am 9.2 7.1 6.6 84 1.2 N 7 7 4 4 1028.2 1028.1 0.2
22/08:00am 8.5 6.4 6.5 87 0.9 NNW 7 9 4 5 1027.8 1027.7 0.2
22/07:30am 8.1 5.9 6.1 87 0.9 W 7 9 4 5 1027.3 1027.2 0.2
22/07:00am 7.8 5.5 5.9 88 0.9 NNW 7 7 4 4 1026.8 1026.7 0.2
22/06:30am 6.8 4.5 5.0 88 0.8 NNW 6 9 3 5 1026.5 1026.5 0.2
22/06:00am 6.9 4.0 4.9 87 0.9 SSW 9 15 5 8 1026.0 1025.9 0.2
22/05:30am 7.0 3.4 5.0 87 0.9 SW 13 19 7 10 1025.9 1025.8 0.2
22/05:00am 5.8 3.8 4.4 91 0.6 WSW 4 9 2 5 1025.6 1025.5 0.2
22/04:30am 5.8 3.8 4.3 90 0.6 WSW 4 7 2 4 1025.5 1025.4 0.2
22/04:00am 6.1 2.8 4.4 89 0.7 SW 11 15 6 8 1025.5 1025.4 0.2
22/03:30am 6.4 3.5 4.6 88 0.8 SW 9 13 5 7 1025.6 1025.5 0.2
22/03:00am 6.6 3.0 4.8 88 0.8 SW 13 15 7 8 1025.9 1025.8 0.2
22/02:30am 7.2 3.6 5.2 87 0.9 WSW 13 15 7 8 1026.0 1025.9 0.2
22/02:00am 7.4 3.9 5.4 87 0.9 WSW 13 15 7 8 1026.0 1025.9 0.2
22/01:30am 7.9 4.3 5.2 83 1.2 SW 13 15 7 8 1026.1 1026.0 0.2
22/01:00am 7.6 3.6 5.1 84 1.1 SW 15 17 8 9 1026.3 1026.2 0.2
22/12:30am 7.9 3.9 4.8 81 1.4 SW 15 17 8 9 1026.4 1026.4 0.2
22/12:00am 8.1 4.5 5.0 81 1.4 SW 13 15 7 8 1026.5 1026.5 0.2
 
Date/Time
EST
Temp
°C
App
Temp
°C
Dew
Point
Rel
Hum
%
Delta-T
°C
Wind Press
QNH
hPa
Press
MSL
hPa
Rain
since 9 am
mm
Dir
 
Spd
km/h
Gust
km/h
Spd
kts
Gust
kts
21/11:30pm 8.5 5.0 5.4 81 1.4 SW 13 15 7 8 1026.5 1026.5 0.2
21/11:00pm 9.1 5.2 5.3 77 1.7 SSW 15 19 8 10 1026.8 1026.7 0.2
21/10:30pm 9.8 5.5 5.2 73 2.1 SSW 17 20 9 11 1026.8 1026.7 0.2
21/10:00pm 10.1 6.2 5.3 72 2.2 SSW 15 19 8 10 1026.8 1026.7 0.2
21/09:30pm 10.6 5.8 4.9 68 2.6 SSW 19 24 10 13 1026.7 1026.6 0.2
21/09:00pm 10.7 6.0 5.3 69 2.5 SSW 19 26 10 14 1026.5 1026.5 0.2
21/08:30pm 11.1 5.8 4.8 65 2.9 S 22 32 12 17 1026.1 1026.0 0.2
21/08:00pm 11.4 5.7 4.8 64 3.0 SSW 24 30 13 16 1025.8 1025.7 0.0
21/07:30pm 11.5 6.8 6.0 69 2.6 S 20 26 11 14 1025.6 1025.5 0.0
21/07:00pm 11.6 7.0 5.5 66 2.8 SSW 19 26 10 14 1025.2 1025.1 0.0
21/06:30pm 11.9 6.5 6.4 69 2.6 S 24 32 13 17 1024.7 1024.6 0.0
21/06:00pm 12.1 6.7 6.2 67 2.8 SSW 24 30 13 16 1024.3 1024.2 0.0
21/05:30pm 12.3 7.4 7.0 70 2.6 S 22 30 12 16 1024.0 1023.9 0.0
21/05:00pm 12.6 6.2 6.9 68 2.8 S 30 44 16 24 1023.9 1023.8 0.0
21/04:30pm 13.3 6.4 6.6 64 3.2 S 32 41 17 22 1023.2 1023.1 0.0
21/04:00pm 13.2 8.3 7.0 66 3.0 S 22 30 12 16 1023.0 1022.9 0.0
21/03:30pm 12.9 8.9 8.4 74 2.3 S 19 26 10 14 1023.1 1023.0 0.0
21/03:00pm 13.6 9.2 7.6 67 3.0 SSW 20 30 11 16 1022.9 1022.8 0.0
21/02:30pm 14.0 8.4 8.6 70 2.7 S 28 37 15 20 1022.9 1022.8 0.0
21/02:00pm 12.5 5.7 7.0 69 2.7 SSW 32 39 17 21 1023.0 1022.9 0.0
21/01:30pm 13.6 8.1 7.6 67 3.0 SSW 26 35 14 19 1023.1 1023.0 0.0
21/01:00pm 13.4 8.2 7.4 67 2.9 SSW 24 32 13 17 1023.4 1023.3 0.0
21/12:30pm 12.5 7.9 8.2 75 2.1 S 22 28 12 15 1023.7 1023.6 0.0
21/12:00pm 12.4 10.9 9.1 80 1.7 SE 7 13 4 7 1024.0 1023.9 0.0
21/11:30am 11.4 8.6 8.6 83 1.4 SSE 13 19 7 10 1024.4 1024.3 0.0
21/11:00am 11.1 7.6 8.8 86 1.1 SSW 17 22 9 12 1024.4 1024.3 0.0
21/10:30am 10.6 6.6 8.4 86 1.1 S 19 26 10 14 1024.4 1024.3 0.0
21/10:00am 10.6 6.7 8.5 87 1.0 S 19 24 10 13 1024.0 1023.9 0.0
21/09:30am 10.0 5.3 7.9 87 1.0 SW 22 28 12 15 1023.9 1023.8 0.0
21/09:00am 10.1 7.8 8.9 92 0.6 SSW 11 15 6 8 1023.6 1023.5 14.4
21/08:30am 9.9 7.9 8.8 93 0.5 S 9 13 5 7 1023.2 1023.1 14.4
21/08:00am 9.5 7.0 8.4 93 0.5 S 11 17 6 9 1022.9 1022.8 14.4
21/07:30am 9.4 6.2 8.3 93 0.5 S 15 20 8 11 1022.5 1022.4 14.0
21/07:00am 10.1 5.8 8.0 87 1.0 S 20 28 11 15 1022.0 1021.9 13.2
21/06:30am 10.2 6.6 8.5 89 0.8 S 17 24 9 13 1021.6 1021.4 13.2
21/06:00am 10.3 6.8 8.9 91 0.7 S 17 20 9 11 1021.4 1021.2 13.2
21/05:30am 10.4 7.0 9.0 91 0.7 SSE 17 22 9 12 1021.1 1020.9 13.0
21/05:00am 10.3 6.4 8.7 90 0.8 SSE 19 24 10 13 1021.1 1020.9 13.0
21/04:30am 10.4 6.9 8.7 89 0.8 SSE 17 28 9 15 1020.7 1020.6 13.0
21/04:00am 10.6 6.3 9.4 92 0.6 SSE 22 30 12 16 1020.5 1020.4 13.0
21/03:30am 10.9 7.2 10.1 95 0.4 S 20 28 11 15 1020.7 1020.6 12.8
21/03:00am 11.1 8.0 10.2 94 0.5 SE 17 24 9 13 1020.7 1020.6 11.8
21/02:30am 11.3 7.2 10.2 93 0.6 SSE 22 32 12 17 1020.9 1020.7 10.4
21/02:00am 11.6 9.4 10.8 95 0.4 WSW 13 17 7 9 1021.3 1021.1 9.6
21/01:30am 11.5 9.6 10.4 93 0.6 SSW 11 13 6 7 1021.0 1020.8 8.8
21/01:00am 11.4 9.1 10.5 94 0.5 SSW 13 17 7 9 1020.9 1020.7 8.4
21/12:30am 11.3 7.8 10.2 93 0.6 SSW 19 26 10 14 1021.0 1020.8 6.8
21/12:00am 12.2 10.0 10.9 92 0.7 S 13 19 7 10 1020.6 1020.5 1.2
 
Date/Time
EST
Temp
°C
App
Temp
°C
Dew
Point
Rel
Hum
%
Delta-T
°C
Wind Press
QNH
hPa
Press
MSL
hPa
Rain
since 9 am
mm
Dir
 
Spd
km/h
Gust
km/h
Spd
kts
Gust
kts
20/11:30pm 12.2 8.8 10.4 89 0.9 SSE 19 24 10 13 1020.6 1020.5 0.2
20/11:00pm 13.2 10.8 10.2 82 1.6 SSW 13 19 7 10 1020.6 1020.5 0.0
20/10:30pm 12.8 11.5 9.8 82 1.5 S 7 11 4 6 1020.5 1020.4 0.0
20/10:00pm 12.8 11.5 10.0 83 1.4 S 7 9 4 5 1020.4 1020.3 0.0

Other Formats:

Comma delimited format used in spreadsheet applications
http://www.bom.gov.au/fwo/IDN60801/IDN60801.94686.axf

JavaScript Object Notation format (JSON) in row-major order
http://www.bom.gov.au/fwo/IDN60801/IDN60801.94686.json